全部
Freeway Airport (Kromdraai, Gauteng, South Africa) FAFW 天气
There is no TAF data available at FAFW. Showing TAF data for FAWB (13 mi S).
PRY终端机场天气预报(FAFW无数据)
| Date | Time (SAST) | Flight Rules | Wind Dir. | Speed | Type | Height AGL (ft) | Visibility | Remarks | ||||||
|---|---|---|---|---|---|---|---|---|---|---|---|---|---|---|
There is no METAR data available at FAFW. Showing METAR data for FAWB (13 mi S).
PRY近期METAR历史数据(FAFW无数据)
| Date | Time (SAST) | Flight Rules | Wind Dir. | Speed | Type | Height AGL (ft) | Visibility | Temp (°C) | Temp (°F) | Dew Point (°C) | Dew Point (°F) | Rel. Humid. | Pressure | Density Altitude | Remarks |
|---|---|---|---|---|---|---|---|---|---|---|---|---|---|---|---|
| 04-五月 | 05:00 | n/a | Calm | Missing | 14° | 57° | 13° | 55° | 94% | 1022 mb | 4,666 ft | ||||
| 04-五月 | 04:00 | n/a | Calm | Missing | 13° | 55° | 13° | 55° | 100% | 1022 mb | 4,546 ft | ||||
| 04-五月 | 03:00 | n/a | 90° | 1 kt | Missing | 12° | 53° | 12° | 53° | 100% | 1022 mb | 4,426 ft | |||
| 04-五月 | 02:00 | n/a | Calm | Missing | 13° | 55° | 13° | 55° | 100% | 1022 mb | 4,546 ft | ||||
| 04-五月 | 01:00 | n/a | 170° | 1 kt | Missing | 13° | 55° | 13° | 55° | 100% | 1023 mb | 4,516 ft | |||
| 04-五月 | 00:00 | n/a | 140° | 1 kt | Missing | 14° | 57° | 14° | 57° | 100% | 1023 mb | 4,636 ft | |||
| 03-五月 | 23:00 | n/a | 90° | 2 kt | Missing | 15° | 59° | 13° | 55° | 88% | 1023 mb | 4,756 ft | |||
| 03-五月 | 22:00 | n/a | 70° | 1 kt | Missing | 15° | 59° | 12° | 53° | 82% | 1023 mb | 4,756 ft | |||
| 03-五月 | 21:00 | n/a | 90° | 1 kt | Missing | 14° | 57° | 14° | 57° | 100% | 1023 mb | 4,636 ft | |||
| 03-五月 | 20:00 | n/a | 190° | 1 kt | Missing | 15° | 59° | 12° | 53° | 82% | 1023 mb | 4,756 ft | |||
| 03-五月 | 19:00 | n/a | 150° | 1 kt | Missing | 16° | 60° | 12° | 53° | 77% | 1023 mb | 4,876 ft | |||
| 03-五月 | 18:00 | n/a | 310° | 1 kt | Missing | 20° | 68° | 10° | 50° | 53% | 1023 mb | 5,356 ft | |||
| 03-五月 | 17:00 | n/a | 300° | 4 kt | Missing | 25° | 77° | 8° | 46° | 34% | 1022 mb | 5,986 ft | |||
| 03-五月 | 16:00 | n/a | 290° | 6 kt | Missing | 26° | 78° | 6° | 42° | 28% | 1022 mb | 6,106 ft | |||
| 03-五月 | 15:00 | n/a | 320° | 6 kt | Missing | 26° | 78° | 8° | 46° | 32% | 1022 mb | 6,106 ft | |||
| 03-五月 | 14:00 | n/a | 340° | 4 kt | Missing | 26° | 78° | 9° | 48° | 34% | 1023 mb | 6,076 ft | Wind gusting to 15 KT | ||
| 03-五月 | 13:00 | n/a | 290° | 3 kt | Missing | 26° | 78° | 8° | 46° | 32% | 1023 mb | 6,076 ft | Wind gusting to 14 KT | ||
| 03-五月 | 12:00 | VFR | 270° | 5 kt | Clouds and visibility are OK. | 25° | 77° | 7° | 44° | 32% | 1024 mb | 5,927 ft | |||
| 03-五月 | 11:00 | n/a | 320° | 4 kt | Missing | 24° | 75° | 8° | 46° | 36% | 1025 mb | 5,777 ft | |||
| 03-五月 | 10:00 | n/a | 70° | 2 kt | Missing | 23° | 73° | 8° | 46° | 38% | 1025 mb | 5,657 ft | |||
| 03-五月 | 09:00 | n/a | Calm | Missing | 20° | 68° | 11° | 51° | 56% | 1025 mb | 5,297 ft | ||||
| 03-五月 | 08:00 | n/a | Calm | Missing | 15° | 59° | 11° | 51° | 77% | 1025 mb | 4,697 ft | ||||
| 03-五月 | 07:00 | n/a | Calm | Missing | 11° | 51° | 11° | 51° | 100% | 1024 mb | 4,247 ft | ||||
| 03-五月 | 06:00 | n/a | 120° | 2 kt | Missing | 10° | 50° | 10° | 50° | 100% | 1024 mb | 4,127 ft |
登录
| 您的浏览器不支持. 升级您的浏览器 |
